Details From SBUL - TEN CEL AV CESAR BOMBONATO
To SBGO - Santo Genoveva
Flight Number -
Tags decoded
Created
Modified
Stats Distance 147 nm / 272 km
Max Altitude 0 ft / 0 m
Waypoints 2
Social Downloads 2
Likes 0
Share VATSIM

Download

Looking for another format? Having issues loading an existing format? Contact us
Advertisement - Login to hide

Notes

Requested: SBUL CAL SBGO

Route

SBUL SBGO

ID Type Via Altitude Latitude Longitude Leg Dist Tot Dist Heading (true) Name
O SBUL APT - 0 ft / 0 m -18.88284˚ -48.22559˚ - 0 nm - TEN CEL AV CESAR BOMBONATO
O SBGO APT - 0 ft / 0 m -16.63203˚ -49.22069˚ 146 nm 146 nm 337° / 337° Santo Genoveva

Altitude Profile

Advertisement - Login to hide

SBUL

Details ICAO SBUL (UDI)
Name TEN CEL AV CESAR BOMBONATO
Region Brazil
Timezone America/Sao_Paulo (UTC-3.0)
Stats Elevation 3,094 ft / 943 m (AMSL)
Location -18.882843° -48.225593°
Runways 1
Magnetic Variation 21.319° W

METAR

Not found

TAF

TAF SBUL 240830Z 2412/2424 05012KT CAVOK TX27/2417Z TN19/2423Z BECMG 2415/2417 36007KT SCT045 BECMG 2419/2421 03007KT BECMG 2421/2423 08007KT RMK PHG

Decode

Departure Runways

ID Width Length Bearing (true) Bearing (mag) Surface Threshold Offset Overrun Length
04 148 ft / 45 m 6,418 ft / 1,956 m 22.56° 43.88° Asphalt 0 ft / 0 m 0 ft / 0 m
22 148 ft / 45 m 6,418 ft / 1,956 m 202.55° 223.87° Asphalt 0 ft / 0 m 0 ft / 0 m

SBGO

Details ICAO SBGO (GYN)
Name Santo Genoveva
Region Brazil
Timezone America/Sao_Paulo (UTC-3.0)
Stats Elevation 2,450 ft / 747 m (AMSL)
Location -16.632032° -49.220686°
Runways 1
Magnetic Variation 21.049° W

METAR

SBGO 241800Z 34004KT 9999 SCT045 29/07 Q1018

Decode

TAF

TAF SBGO 241000Z 2412/2512 04013KT CAVOK TX29/2419Z TN16/2509Z FM241600 03009KT 9999 SCT040 FM242200 00000KT CAVOK RMK PDF

Decode

Destination Runways

ID Width Length Bearing (true) Bearing (mag) Surface Threshold Offset Overrun Length
14 148 ft / 45 m 8,208 ft / 2,502 m 120.42° 141.47° Asphalt 0 ft / 0 m 0 ft / 0 m
32 148 ft / 45 m 8,208 ft / 2,502 m 300.41° 321.46° Asphalt 980 ft / 299 m 0 ft / 0 m

Popular Alternatives